Time;durP1;ratioP1;P1;durP2;ratioP2;P2;SDS_P1;SDS_P2;PMS_P1;PMS_P2;Temp;Humidity;BMP_temperature;BMP_pressure;BME280_temperature;BME280_humidity;BME280_pressure;Samples;Min_cycle;Max_cycle;Signal;HPM_P1;HPM_P2
2022/09/25 00:01:42;;;;;;;3.22;3.03;;;;;;;;;;617802;231;26566;-60
2022/09/25 00:04:10;;;;;;;3.30;3.00;;;;;;;;;;616033;231;26898;-60
2022/09/25 00:06:40;;;;;;;3.22;3.00;;;;;;;;;;614563;231;26616;-60
2022/09/25 00:09:08;;;;;;;3.42;3.22;;;;;;;;;;615273;231;26571;-60
2022/09/25 00:11:37;;;;;;;3.30;3.10;;;;;;;;;;616455;229;26564;-60
2022/09/25 00:14:06;;;;;;;3.55;3.00;;;;;;;;;;616571;230;26618;-60
2022/09/25 00:16:35;;;;;;;3.70;3.40;;;;;;;;;;615775;233;26801;-60
2022/09/25 00:21:38;;;;;;;3.28;2.97;;;;;;;;;;612934;235;26644;-60
2022/09/25 00:24:08;;;;;;;3.47;3.17;;;;;;;;;;613862;231;26591;-60
2022/09/25 00:26:36;;;;;;;3.22;3.00;;;;;;;;;;621187;231;26631;-60
2022/09/25 00:29:05;;;;;;;3.83;3.42;;;;;;;;;;621098;230;26575;-60
2022/09/25 00:31:34;;;;;;;3.45;3.17;;;;;;;;;;614134;230;26576;-61
2022/09/25 00:34:02;;;;;;;3.30;3.10;;;;;;;;;;615491;231;27234;-62
2022/09/25 00:36:31;;;;;;;3.55;3.35;;;;;;;;;;615178;230;26601;-60
2022/09/25 00:39:00;;;;;;;3.78;3.47;;;;;;;;;;612687;233;26909;-60
2022/09/25 00:41:30;;;;;;;3.60;3.30;;;;;;;;;;615041;231;26610;-60
2022/09/25 00:43:58;;;;;;;3.12;2.92;;;;;;;;;;614780;231;26668;-60
2022/09/25 00:46:32;;;;;;;3.58;3.20;;;;;;;;;;623738;231;26566;-60
2022/09/25 00:49:02;;;;;;;3.28;3.08;;;;;;;;;;620710;231;26639;-60
2022/09/25 00:51:33;;;;;;;3.40;3.08;;;;;;;;;;618225;231;26792;-60
2022/09/25 00:54:02;;;;;;;3.22;2.90;;;;;;;;;;614710;231;26636;-60
2022/09/25 00:56:31;;;;;;;3.42;3.12;;;;;;;;;;614801;231;26607;-60
2022/09/25 00:59:00;;;;;;;3.15;2.95;;;;;;;;;;621708;231;26608;-60
2022/09/25 01:01:29;;;;;;;3.35;3.05;;;;;;;;;;623528;231;26819;-60
2022/09/25 01:03:58;;;;;;;3.17;2.90;;;;;;;;;;620615;231;27318;-60
2022/09/25 01:06:27;;;;;;;2.83;2.72;;;;;;;;;;618589;231;26568;-60
2022/09/25 01:08:55;;;;;;;3.00;2.80;;;;;;;;;;615394;231;26798;-60
2022/09/25 01:11:24;;;;;;;3.42;3.22;;;;;;;;;;618028;231;26576;-60
2022/09/25 01:13:53;;;;;;;3.17;2.97;;;;;;;;;;621620;231;26643;-61
2022/09/25 01:16:26;;;;;;;3.15;2.87;;;;;;;;;;617140;231;26615;-60
2022/09/25 01:18:56;;;;;;;2.83;2.72;;;;;;;;;;616517;233;26626;-61
2022/09/25 01:21:24;;;;;;;3.25;2.97;;;;;;;;;;616031;231;26571;-60
2022/09/25 01:23:55;;;;;;;3.62;3.33;;;;;;;;;;614585;231;27128;-60
2022/09/25 01:26:30;;;;;;;3.08;2.87;;;;;;;;;;621045;231;27258;-61
2022/09/25 01:29:14;;;;;;;3.30;3.10;;;;;;;;;;618526;231;26791;-61
2022/09/25 01:31:43;;;;;;;3.30;3.10;;;;;;;;;;612949;231;26638;-61
2022/09/25 01:34:13;;;;;;;2.80;2.60;;;;;;;;;;618259;231;26626;-60
2022/09/25 01:36:42;;;;;;;2.95;2.75;;;;;;;;;;615905;233;26622;-60
2022/09/25 01:39:10;;;;;;;3.58;3.17;;;;;;;;;;619368;231;26582;-60
2022/09/25 01:41:44;;;;;;;2.85;2.65;;;;;;;;;;621352;231;26776;-60
2022/09/25 01:44:12;;;;;;;2.80;2.60;;;;;;;;;;621011;231;26854;-61
2022/09/25 01:46:41;;;;;;;3.60;3.10;;;;;;;;;;621181;226;26574;-60
2022/09/25 01:49:11;;;;;;;3.12;2.92;;;;;;;;;;616246;226;26859;-60
2022/09/25 01:51:41;;;;;;;3.08;2.87;;;;;;;;;;614978;233;26767;-61
2022/09/25 01:54:10;;;;;;;3.30;3.10;;;;;;;;;;615811;234;26559;-61
2022/09/25 01:56:39;;;;;;;3.08;2.87;;;;;;;;;;615888;234;26769;-61
2022/09/25 01:59:08;;;;;;;4.12;2.75;;;;;;;;;;618392;231;26540;-61
2022/09/25 02:01:37;;;;;;;3.12;2.92;;;;;;;;;;616561;231;26668;-61
2022/09/25 02:04:08;;;;;;;2.60;2.50;;;;;;;;;;613099;231;26624;-61
2022/09/25 02:06:37;;;;;;;2.90;2.70;;;;;;;;;;613162;233;26843;-59
2022/09/25 02:09:06;;;;;;;2.60;2.40;;;;;;;;;;615203;234;26536;-60
2022/09/25 02:11:35;;;;;;;3.10;2.90;;;;;;;;;;612673;234;26803;-60
2022/09/25 02:14:04;;;;;;;3.10;2.90;;;;;;;;;;617708;231;26600;-60
2022/09/25 02:16:34;;;;;;;2.90;2.70;;;;;;;;;;614078;231;26607;-60
2022/09/25 02:21:41;;;;;;;3.58;2.97;;;;;;;;;;615961;234;26538;-60
2022/09/25 02:24:12;;;;;;;2.72;2.60;;;;;;;;;;615461;234;26803;-59
2022/09/25 02:26:41;;;;;;;2.75;2.60;;;;;;;;;;616185;231;26570;-59
2022/09/25 02:29:11;;;;;;;2.90;2.70;;;;;;;;;;617590;230;26793;-60
2022/09/25 02:31:54;;;;;;;3.95;2.90;;;;;;;;;;622580;230;26633;-60
2022/09/25 02:34:23;;;;;;;3.05;2.85;;;;;;;;;;615852;231;26563;-60
2022/09/25 02:36:52;;;;;;;3.25;2.95;;;;;;;;;;616309;233;26798;-59
2022/09/25 02:39:20;;;;;;;3.08;2.87;;;;;;;;;;614841;231;26555;-60
2022/09/25 02:41:59;;;;;;;2.50;2.40;;;;;;;;;;612969;233;26854;-60
2022/09/25 02:44:34;;;;;;;2.70;2.60;;;;;;;;;;614673;229;26595;-60
2022/09/25 02:47:03;;;;;;;3.30;3.00;;;;;;;;;;612864;233;26777;-59
2022/09/25 02:49:33;;;;;;;2.83;2.62;;;;;;;;;;612359;233;26580;-60
2022/09/25 02:52:03;;;;;;;3.10;2.90;;;;;;;;;;619960;231;26572;-60
2022/09/25 02:54:32;;;;;;;2.85;2.65;;;;;;;;;;618521;230;27227;-60
2022/09/25 02:57:01;;;;;;;2.75;2.55;;;;;;;;;;615741;233;26647;-59
2022/09/25 02:59:31;;;;;;;2.42;2.33;;;;;;;;;;615601;233;26808;-60
2022/09/25 03:02:00;;;;;;;2.60;2.50;;;;;;;;;;613813;230;26584;-60
2022/09/25 03:04:31;;;;;;;2.85;2.65;;;;;;;;;;615486;231;26588;-60
2022/09/25 03:06:58;;;;;;;2.83;2.62;;;;;;;;;;615490;231;26640;-59
2022/09/25 03:09:27;;;;;;;2.90;2.70;;;;;;;;;;616571;231;26995;-60
2022/09/25 03:11:56;;;;;;;2.85;2.70;;;;;;;;;;621206;231;26610;-59
2022/09/25 03:14:25;;;;;;;2.58;2.47;;;;;;;;;;615513;231;26815;-60
2022/09/25 03:16:55;;;;;;;2.53;2.40;;;;;;;;;;614763;234;26565;-60
2022/09/25 03:19:24;;;;;;;2.60;2.40;;;;;;;;;;619043;231;26578;-60
2022/09/25 03:21:53;;;;;;;2.72;2.53;;;;;;;;;;619721;231;26608;-60
2022/09/25 03:24:22;;;;;;;2.67;2.50;;;;;;;;;;616340;231;26646;-60
2022/09/25 03:26:50;;;;;;;2.67;2.58;;;;;;;;;;615883;231;27280;-60
2022/09/25 03:29:20;;;;;;;2.95;2.75;;;;;;;;;;615561;231;26631;-60
2022/09/25 03:31:48;;;;;;;2.40;2.30;;;;;;;;;;621062;231;26855;-60
2022/09/25 03:34:17;;;;;;;2.80;2.70;;;;;;;;;;615127;231;26647;-60
2022/09/25 03:36:46;;;;;;;2.55;2.35;;;;;;;;;;614134;231;26613;-60
2022/09/25 03:39:16;;;;;;;8.50;2.78;;;;;;;;;;614051;232;26607;-62
2022/09/25 03:41:43;;;;;;;2.85;2.47;;;;;;;;;;613760;231;26564;-62
2022/09/25 03:44:12;;;;;;;2.92;2.72;;;;;;;;;;618418;231;26845;-62
2022/09/25 03:46:41;;;;;;;2.72;2.55;;;;;;;;;;621729;230;26577;-62
2022/09/25 03:49:11;;;;;;;2.62;2.53;;;;;;;;;;621060;230;26866;-62
2022/09/25 03:51:40;;;;;;;2.90;2.70;;;;;;;;;;615044;230;26628;-62
2022/09/25 03:54:08;;;;;;;2.90;2.70;;;;;;;;;;615913;233;26588;-62
2022/09/25 03:56:37;;;;;;;2.72;2.53;;;;;;;;;;614151;233;26814;-63
2022/09/25 03:59:05;;;;;;;2.58;2.40;;;;;;;;;;613447;231;26556;-63
2022/09/25 04:01:35;;;;;;;2.28;2.17;;;;;;;;;;618293;231;26850;-63
2022/09/25 04:04:03;;;;;;;2.70;2.50;;;;;;;;;;615818;233;26599;-63
2022/09/25 04:06:32;;;;;;;3.10;2.47;;;;;;;;;;614365;231;26780;-63
2022/09/25 04:09:01;;;;;;;2.67;2.45;;;;;;;;;;616941;231;26534;-63
2022/09/25 04:11:30;;;;;;;2.97;2.78;;;;;;;;;;617461;231;26556;-63
2022/09/25 04:13:59;;;;;;;3.03;2.65;;;;;;;;;;615656;233;26854;-63
2022/09/25 04:16:30;;;;;;;3.05;2.85;;;;;;;;;;613532;231;26564;-63
2022/09/25 04:18:56;;;;;;;2.37;2.17;;;;;;;;;;616153;231;26834;-63
2022/09/25 04:21:25;;;;;;;2.92;2.58;;;;;;;;;;615567;234;26576;-63
2022/09/25 04:26:29;;;;;;;2.50;2.40;;;;;;;;;;615931;231;26818;-63
2022/09/25 04:29:00;;;;;;;2.83;2.62;;;;;;;;;;615511;234;26576;-62
2022/09/25 04:31:27;;;;;;;2.80;2.60;;;;;;;;;;615428;234;26801;-62
2022/09/25 04:33:56;;;;;;;2.53;2.25;;;;;;;;;;615524;233;26870;-62
2022/09/25 04:36:25;;;;;;;2.70;2.50;;;;;;;;;;613857;231;26572;-62
2022/09/25 04:38:54;;;;;;;2.22;2.12;;;;;;;;;;612515;231;26881;-62
2022/09/25 04:41:22;;;;;;;2.90;2.70;;;;;;;;;;615534;234;26573;-62
2022/09/25 04:43:51;;;;;;;2.75;2.50;;;;;;;;;;615587;234;26795;-62
2022/09/25 04:46:20;;;;;;;2.60;2.45;;;;;;;;;;614007;231;26563;-62
2022/09/25 04:48:49;;;;;;;2.70;2.60;;;;;;;;;;620528;230;26633;-62
2022/09/25 04:51:18;;;;;;;3.00;2.80;;;;;;;;;;617291;231;26599;-62
2022/09/25 04:53:47;;;;;;;3.03;2.60;;;;;;;;;;615465;231;26620;-62
2022/09/25 04:56:15;;;;;;;3.33;2.40;;;;;;;;;;614870;233;26809;-62
2022/09/25 04:58:45;;;;;;;3.10;2.85;;;;;;;;;;616374;233;26531;-62
2022/09/25 05:01:13;;;;;;;2.30;2.20;;;;;;;;;;614346;231;26947;-62
2022/09/25 05:03:42;;;;;;;2.95;2.47;;;;;;;;;;614861;228;26606;-62
2022/09/25 05:06:11;;;;;;;2.28;2.17;;;;;;;;;;613111;233;26621;-62
2022/09/25 05:08:40;;;;;;;3.15;2.95;;;;;;;;;;613837;233;26567;-63
2022/09/25 05:11:10;;;;;;;2.60;2.50;;;;;;;;;;615944;233;26587;-63
2022/09/25 05:13:37;;;;;;;2.70;2.50;;;;;;;;;;615617;233;26619;-63
2022/09/25 05:16:06;;;;;;;2.97;2.60;;;;;;;;;;614373;230;26581;-63
2022/09/25 05:18:35;;;;;;;2.72;2.60;;;;;;;;;;616878;230;27127;-63
2022/09/25 05:21:04;;;;;;;2.80;2.60;;;;;;;;;;617970;230;26562;-63
2022/09/25 05:23:33;;;;;;;2.72;2.47;;;;;;;;;;620623;230;26657;-61
2022/09/25 05:26:02;;;;;;;2.75;2.55;;;;;;;;;;612625;233;26552;-62
2022/09/25 05:28:30;;;;;;;2.90;2.70;;;;;;;;;;612490;235;26610;-62
2022/09/25 05:31:02;;;;;;;2.30;2.20;;;;;;;;;;612417;234;26791;-62
2022/09/25 05:33:31;;;;;;;2.58;2.45;;;;;;;;;;612538;234;26568;-62
2022/09/25 05:36:00;;;;;;;2.97;2.78;;;;;;;;;;616042;231;27106;-62
2022/09/25 05:38:29;;;;;;;3.12;2.92;;;;;;;;;;621055;231;26577;-62
2022/09/25 05:41:05;;;;;;;2.30;2.20;;;;;;;;;;620982;231;27275;-62
2022/09/25 05:43:34;;;;;;;2.40;2.30;;;;;;;;;;616121;231;26619;-62
2022/09/25 05:46:03;;;;;;;2.28;2.17;;;;;;;;;;620974;231;26614;-62
2022/09/25 05:48:32;;;;;;;2.60;2.40;;;;;;;;;;617034;231;26568;-62
2022/09/25 05:51:01;;;;;;;2.62;2.50;;;;;;;;;;615490;231;26563;-63
2022/09/25 05:53:32;;;;;;;2.78;2.58;;;;;;;;;;615636;234;26691;-62
2022/09/25 05:56:02;;;;;;;2.90;2.70;;;;;;;;;;615620;234;26568;-62
2022/09/25 05:58:30;;;;;;;4.32;3.20;;;;;;;;;;615384;231;27258;-61
2022/09/25 06:01:00;;;;;;;10.90;2.95;;;;;;;;;;612824;232;26653;-61
2022/09/25 06:03:29;;;;;;;11.12;3.05;;;;;;;;;;618108;230;26654;-61
2022/09/25 06:05:58;;;;;;;4.25;2.83;;;;;;;;;;618057;230;26802;-61
2022/09/25 06:08:29;;;;;;;3.85;2.80;;;;;;;;;;615503;231;26811;-60
2022/09/25 06:10:55;;;;;;;2.90;2.70;;;;;;;;;;617516;230;26583;-61
2022/09/25 06:13:24;;;;;;;3.03;2.78;;;;;;;;;;615423;231;26571;-61
2022/09/25 06:15:53;;;;;;;4.50;2.80;;;;;;;;;;618036;230;26569;-61
2022/09/25 06:18:22;;;;;;;4.15;3.00;;;;;;;;;;618067;230;26545;-61
2022/09/25 06:20:51;;;;;;;4.12;3.00;;;;;;;;;;614658;231;26866;-61
2022/09/25 06:23:20;;;;;;;3.28;2.97;;;;;;;;;;614232;233;26573;-61
2022/09/25 06:25:48;;;;;;;3.47;2.87;;;;;;;;;;616880;230;26884;-61
2022/09/25 06:28:17;;;;;;;3.05;2.85;;;;;;;;;;617083;230;26568;-61
2022/09/25 06:30:46;;;;;;;4.43;3.03;;;;;;;;;;617517;230;26876;-61
2022/09/25 06:33:15;;;;;;;3.80;3.10;;;;;;;;;;616376;227;26585;-61
2022/09/25 06:35:44;;;;;;;3.55;3.25;;;;;;;;;;616157;230;26571;-61
2022/09/25 06:38:13;;;;;;;11.93;3.58;;;;;;;;;;614252;228;26763;-61
2022/09/25 06:40:42;;;;;;;3.40;3.10;;;;;;;;;;616440;231;26634;-61
2022/09/25 06:43:10;;;;;;;5.82;3.45;;;;;;;;;;615461;231;26834;-61
2022/09/25 06:45:40;;;;;;;3.95;3.58;;;;;;;;;;620329;231;26621;-62
2022/09/25 06:48:09;;;;;;;5.40;3.42;;;;;;;;;;617222;231;26850;-62
2022/09/25 06:50:37;;;;;;;4.65;3.62;;;;;;;;;;614056;231;26580;-62
2022/09/25 06:53:06;;;;;;;14.98;4.00;;;;;;;;;;620330;231;26684;-62
2022/09/25 06:55:35;;;;;;;14.48;4.45;;;;;;;;;;616749;231;26561;-62
2022/09/25 06:58:03;;;;;;;5.60;3.65;;;;;;;;;;615181;231;26584;-63
2022/09/25 07:00:32;;;;;;;7.68;3.65;;;;;;;;;;617459;231;26788;-63
2022/09/25 07:05:36;;;;;;;3.85;3.55;;;;;;;;;;616018;231;26564;-62
2022/09/25 07:08:05;;;;;;;4.25;3.62;;;;;;;;;;614931;231;26565;-63
2022/09/25 07:10:33;;;;;;;4.12;3.72;;;;;;;;;;617459;231;26794;-63
2022/09/25 07:13:03;;;;;;;4.20;3.80;;;;;;;;;;616558;231;26613;-62
2022/09/25 07:15:31;;;;;;;3.83;3.53;;;;;;;;;;614942;233;26644;-63
2022/09/25 07:18:00;;;;;;;5.45;3.95;;;;;;;;;;614873;233;26575;-63
2022/09/25 07:20:29;;;;;;;4.12;3.80;;;;;;;;;;615593;231;26825;-63
2022/09/25 07:22:58;;;;;;;4.28;3.55;;;;;;;;;;616981;230;26662;-63
2022/09/25 07:25:26;;;;;;;6.15;3.58;;;;;;;;;;617093;230;26835;-62
2022/09/25 07:27:55;;;;;;;4.80;4.25;;;;;;;;;;617057;231;26578;-62
2022/09/25 07:30:26;;;;;;;5.25;3.78;;;;;;;;;;615551;231;26630;-63
2022/09/25 07:32:55;;;;;;;7.68;3.67;;;;;;;;;;615982;227;26623;-61
2022/09/25 07:35:26;;;;;;;7.55;4.10;;;;;;;;;;617448;230;26542;-61
2022/09/25 07:37:54;;;;;;;6.45;3.50;;;;;;;;;;615817;230;26593;-61
2022/09/25 07:40:25;;;;;;;4.65;4.03;;;;;;;;;;615060;230;26564;-61
2022/09/25 07:42:52;;;;;;;4.97;3.80;;;;;;;;;;613570;233;27291;-61
2022/09/25 07:45:21;;;;;;;5.20;3.50;;;;;;;;;;617154;231;26563;-61
2022/09/25 07:47:50;;;;;;;4.60;4.20;;;;;;;;;;615480;230;26857;-61
2022/09/25 07:50:19;;;;;;;4.07;3.78;;;;;;;;;;614416;231;26568;-62
2022/09/25 07:52:47;;;;;;;4.07;3.72;;;;;;;;;;621359;230;26644;-61
2022/09/25 07:55:17;;;;;;;4.97;4.47;;;;;;;;;;615835;231;26563;-61
2022/09/25 07:57:45;;;;;;;4.20;3.55;;;;;;;;;;615749;231;26654;-61
2022/09/25 08:00:14;;;;;;;4.78;4.37;;;;;;;;;;617511;231;26623;-61
2022/09/25 08:02:43;;;;;;;4.57;3.90;;;;;;;;;;614024;231;26634;-61
2022/09/25 08:05:12;;;;;;;4.32;3.90;;;;;;;;;;616043;231;27201;-61
2022/09/25 08:07:41;;;;;;;4.12;3.83;;;;;;;;;;613892;231;26630;-62
2022/09/25 08:10:10;;;;;;;4.85;3.60;;;;;;;;;;619029;231;26827;-62
2022/09/25 08:12:39;;;;;;;3.85;3.55;;;;;;;;;;613277;231;26592;-61
2022/09/25 08:15:07;;;;;;;4.50;4.10;;;;;;;;;;615005;231;26669;-62
2022/09/25 08:17:36;;;;;;;4.57;4.22;;;;;;;;;;615976;231;26584;-62
2022/09/25 08:20:05;;;;;;;11.80;4.22;;;;;;;;;;614737;231;26612;-61
2022/09/25 08:22:34;;;;;;;13.85;4.90;;;;;;;;;;615050;231;26554;-62
2022/09/25 08:25:03;;;;;;;10.13;4.57;;;;;;;;;;614418;232;27282;-62
2022/09/25 08:27:32;;;;;;;4.93;4.40;;;;;;;;;;616478;233;26571;-62
2022/09/25 08:30:01;;;;;;;4.97;4.28;;;;;;;;;;615437;233;26756;-62
2022/09/25 08:32:30;;;;;;;5.20;4.12;;;;;;;;;;616866;230;26558;-62
2022/09/25 08:35:00;;;;;;;8.20;4.80;;;;;;;;;;618041;230;26650;-62
2022/09/25 08:37:28;;;;;;;5.87;4.57;;;;;;;;;;615158;231;26803;-63
2022/09/25 08:39:56;;;;;;;6.35;4.30;;;;;;;;;;614733;230;26619;-63
2022/09/25 08:42:28;;;;;;;4.70;4.30;;;;;;;;;;614483;230;26617;-62
2022/09/25 08:50:14;;;;;;;6.18;4.10;;;;;;;;;;614464;230;26552;-63
2022/09/25 08:52:43;;;;;;;4.65;4.25;;;;;;;;;;615572;230;26822;-63
2022/09/25 08:58:05;;;;;;;6.03;4.43;;;;;;;;;;615777;230;27223;-63
2022/09/25 09:00:33;;;;;;;4.53;4.12;;;;;;;;;;613392;230;26563;-63
2022/09/25 09:03:01;;;;;;;5.70;3.97;;;;;;;;;;617773;231;27013;-63
2022/09/25 09:05:31;;;;;;;4.75;4.12;;;;;;;;;;615782;231;26573;-65
2022/09/25 09:08:01;;;;;;;20.67;5.10;;;;;;;;;;617002;231;26808;-62
2022/09/25 09:10:35;;;;;;;91.32;20.15;;;;;;;;;;615358;231;26551;-61
2022/09/25 09:13:10;;;;;;;350.62;54.03;;;;;;;;;;614151;231;26611;-62
2022/09/25 09:15:40;;;;;;;1999.90;492.27;;;;;;;;;;614025;231;26532;-62
2022/09/25 09:18:23;;;;;;;1999.90;494.15;;;;;;;;;;615023;234;26532;-60
2022/09/25 09:20:52;;;;;;;135.02;42.83;;;;;;;;;;615487;231;26540;-62
2022/09/25 09:23:21;;;;;;;101.78;36.08;;;;;;;;;;617748;231;26854;-62
2022/09/25 09:25:50;;;;;;;83.80;31.20;;;;;;;;;;616272;231;26593;-62
2022/09/25 09:28:20;;;;;;;60.65;24.65;;;;;;;;;;614963;231;26539;-63
2022/09/25 09:30:54;;;;;;;38.65;16.15;;;;;;;;;;617274;231;26593;-63
2022/09/25 09:33:26;;;;;;;35.63;13.90;;;;;;;;;;615624;231;26845;-63
2022/09/25 09:36:11;;;;;;;37.78;15.20;;;;;;;;;;617640;229;26578;-63
2022/09/25 09:38:43;;;;;;;32.05;14.35;;;;;;;;;;618252;229;26603;-63
2022/09/25 09:41:12;;;;;;;38.40;16.55;;;;;;;;;;618989;230;26579;-63
2022/09/25 09:43:45;;;;;;;30.73;12.50;;;;;;;;;;618605;229;26642;-62
2022/09/25 09:46:16;;;;;;;35.28;15.10;;;;;;;;;;615769;233;26766;-62
2022/09/25 09:48:46;;;;;;;25.02;10.93;;;;;;;;;;612850;235;26852;-62
2022/09/25 09:51:15;;;;;;;22.70;10.40;;;;;;;;;;613931;233;26609;-62
2022/09/25 09:53:46;;;;;;;32.42;13.70;;;;;;;;;;617762;230;26586;-62
2022/09/25 09:56:17;;;;;;;17.73;10.77;;;;;;;;;;617950;231;26541;-62
2022/09/25 09:58:49;;;;;;;21.00;9.60;;;;;;;;;;613416;231;26649;-62
2022/09/25 10:01:19;;;;;;;19.37;9.73;;;;;;;;;;615201;231;26876;-61
2022/09/25 10:03:47;;;;;;;16.92;9.43;;;;;;;;;;614236;228;26643;-61
2022/09/25 10:06:16;;;;;;;17.92;9.25;;;;;;;;;;614358;230;26603;-61
2022/09/25 10:08:45;;;;;;;14.38;7.97;;;;;;;;;;616029;230;26592;-61
2022/09/25 10:11:14;;;;;;;13.95;8.07;;;;;;;;;;616317;231;26574;-61
2022/09/25 10:13:43;;;;;;;11.07;7.80;;;;;;;;;;614704;231;26636;-61
2022/09/25 10:16:27;;;;;;;11.20;6.70;;;;;;;;;;613362;234;26810;-60
2022/09/25 10:19:02;;;;;;;7.87;6.47;;;;;;;;;;621214;231;27250;-60
2022/09/25 10:21:31;;;;;;;10.52;6.55;;;;;;;;;;620989;231;26656;-60
2022/09/25 10:24:02;;;;;;;6.80;6.10;;;;;;;;;;620395;231;26878;-60
2022/09/25 10:26:29;;;;;;;9.43;6.62;;;;;;;;;;615730;231;26595;-60
2022/09/25 10:28:58;;;;;;;6.95;5.90;;;;;;;;;;615052;229;26801;-61
2022/09/25 10:31:27;;;;;;;9.32;8.02;;;;;;;;;;614528;228;26564;-61
2022/09/25 10:34:03;;;;;;;8.85;6.53;;;;;;;;;;621052;231;26654;-61
2022/09/25 10:36:37;;;;;;;7.45;6.10;;;;;;;;;;618732;231;26797;-61
2022/09/25 10:39:06;;;;;;;11.23;7.85;;;;;;;;;;614537;231;26616;-62
2022/09/25 10:41:42;;;;;;;10.48;6.28;;;;;;;;;;613511;231;26573;-62
2022/09/25 10:44:20;;;;;;;8.07;6.70;;;;;;;;;;616472;231;26649;-61
2022/09/25 10:52:00;;;;;;;6.03;5.40;;;;;;;;;;615570;231;26832;-63
2022/09/25 10:54:29;;;;;;;9.48;6.47;;;;;;;;;;614349;231;26817;-61
2022/09/25 10:56:58;;;;;;;7.90;5.75;;;;;;;;;;618903;228;26606;-62
2022/09/25 10:59:26;;;;;;;13.50;6.55;;;;;;;;;;615814;231;26836;-62
2022/09/25 11:01:55;;;;;;;15.02;6.57;;;;;;;;;;615202;230;26621;-60
2022/09/25 11:04:26;;;;;;;9.63;5.90;;;;;;;;;;614240;231;26650;-60
2022/09/25 11:06:56;;;;;;;6.43;5.78;;;;;;;;;;618826;230;26577;-60
2022/09/25 11:09:24;;;;;;;6.93;6.10;;;;;;;;;;615579;230;26812;-60
2022/09/25 11:11:53;;;;;;;6.20;5.65;;;;;;;;;;615573;230;26613;-60
2022/09/25 11:14:23;;;;;;;7.95;6.05;;;;;;;;;;616356;230;26578;-60
2022/09/25 11:16:52;;;;;;;6.03;5.53;;;;;;;;;;614181;233;26614;-60
2022/09/25 11:19:35;;;;;;;44.92;12.32;;;;;;;;;;614926;231;26546;-61
2022/09/25 11:22:06;;;;;;;130.00;34.45;;;;;;;;;;614274;231;26613;-62
2022/09/25 11:24:39;;;;;;;133.00;33.17;;;;;;;;;;613874;231;26603;-61
2022/09/25 11:27:10;;;;;;;112.30;29.37;;;;;;;;;;613612;234;26751;-60
2022/09/25 11:29:39;;;;;;;114.10;26.40;;;;;;;;;;614051;231;26575;-61
2022/09/25 11:32:11;;;;;;;108.25;25.50;;;;;;;;;;622782;231;26625;-61
2022/09/25 11:34:44;;;;;;;102.18;25.58;;;;;;;;;;613177;231;27221;-63
2022/09/25 11:37:19;;;;;;;51.28;16.27;;;;;;;;;;614571;234;26604;-64
2022/09/25 11:42:29;;;;;;;70.95;21.10;;;;;;;;;;615098;231;26842;-63
2022/09/25 11:45:03;;;;;;;61.13;19.00;;;;;;;;;;616934;230;26789;-63
2022/09/25 11:47:32;;;;;;;40.88;21.58;;;;;;;;;;614763;234;26570;-63
2022/09/25 11:50:01;;;;;;;31.27;28.30;;;;;;;;;;614748;232;26808;-62
2022/09/25 11:52:36;;;;;;;48.40;43.83;;;;;;;;;;619546;231;26605;-62
2022/09/25 11:55:17;;;;;;;43.33;39.20;;;;;;;;;;612447;234;26624;-62
2022/09/25 11:58:01;;;;;;;48.92;43.92;;;;;;;;;;617109;231;26617;-62
2022/09/25 12:00:39;;;;;;;54.63;49.33;;;;;;;;;;619980;230;26603;-62
2022/09/25 12:03:10;;;;;;;74.55;67.40;;;;;;;;;;614415;231;26949;-64
2022/09/25 12:05:44;;;;;;;83.87;76.25;;;;;;;;;;617192;230;26792;-65
2022/09/25 12:08:25;;;;;;;110.37;100.93;;;;;;;;;;613273;233;26567;-65
2022/09/25 12:11:00;;;;;;;179.68;164.93;;;;;;;;;;616696;231;26860;-64
2022/09/25 12:13:32;;;;;;;211.75;193.90;;;;;;;;;;615019;231;26611;-64
2022/09/25 12:16:02;;;;;;;155.23;142.07;;;;;;;;;;615350;230;26573;-64
2022/09/25 12:18:32;;;;;;;134.55;123.28;;;;;;;;;;615275;233;26609;-64
2022/09/25 12:21:04;;;;;;;133.32;121.15;;;;;;;;;;613000;233;26541;-65
2022/09/25 12:23:32;;;;;;;156.23;142.48;;;;;;;;;;613869;231;26725;-64
2022/09/25 12:26:07;;;;;;;121.18;110.90;;;;;;;;;;619633;230;26548;-65
2022/09/25 12:28:57;;;;;;;129.12;118.00;;;;;;;;;;614693;230;27278;-64
2022/09/25 12:31:28;;;;;;;137.80;125.82;;;;;;;;;;604083;231;26609;-65
2022/09/25 12:33:57;;;;;;;130.73;119.68;;;;;;;;;;620975;230;26591;-65
2022/09/25 12:36:36;;;;;;;127.07;116.22;;;;;;;;;;620520;231;26629;-64
2022/09/25 12:39:09;;;;;;;120.95;110.60;;;;;;;;;;613164;230;26580;-65
2022/09/25 12:41:40;;;;;;;119.18;109.00;;;;;;;;;;613543;231;26880;-65
2022/09/25 12:44:15;;;;;;;112.45;103.05;;;;;;;;;;613307;231;26591;-65
2022/09/25 12:46:46;;;;;;;70.40;63.83;;;;;;;;;;615128;231;26589;-65
2022/09/25 12:49:16;;;;;;;103.78;94.40;;;;;;;;;;614371;231;26799;-65
2022/09/25 12:51:45;;;;;;;99.68;90.97;;;;;;;;;;615120;230;26778;-65
2022/09/25 12:54:27;;;;;;;95.55;87.00;;;;;;;;;;615576;231;26591;-65
2022/09/25 12:56:56;;;;;;;63.60;57.70;;;;;;;;;;619876;231;26618;-65
2022/09/25 12:59:34;;;;;;;67.30;61.17;;;;;;;;;;617023;227;26633;-64
2022/09/25 13:02:02;;;;;;;61.22;55.83;;;;;;;;;;617355;231;26814;-64
2022/09/25 13:04:36;;;;;;;57.13;52.15;;;;;;;;;;614728;231;26620;-64
2022/09/25 13:07:08;;;;;;;51.37;46.70;;;;;;;;;;615973;231;26573;-64
2022/09/25 13:09:37;;;;;;;64.12;58.47;;;;;;;;;;618063;231;26575;-65
2022/09/25 13:12:08;;;;;;;58.60;53.22;;;;;;;;;;615473;231;26846;-64
2022/09/25 13:14:40;;;;;;;69.32;63.15;;;;;;;;;;615968;230;26856;-64
2022/09/25 13:17:09;;;;;;;66.37;60.33;;;;;;;;;;613722;231;26596;-64
2022/09/25 13:19:37;;;;;;;63.83;58.30;;;;;;;;;;617065;231;26809;-64
2022/09/25 13:22:06;;;;;;;57.45;52.35;;;;;;;;;;614991;231;26832;-65
2022/09/25 13:24:35;;;;;;;59.63;54.20;;;;;;;;;;621162;230;26641;-66
2022/09/25 13:27:05;;;;;;;58.40;53.30;;;;;;;;;;618764;230;26608;-65
2022/09/25 13:29:35;;;;;;;51.53;46.67;;;;;;;;;;614327;228;26532;-65
2022/09/25 13:32:04;;;;;;;56.53;51.63;;;;;;;;;;615950;230;26776;-65
2022/09/25 13:34:33;;;;;;;36.53;33.33;;;;;;;;;;615879;230;26573;-65
2022/09/25 13:37:02;;;;;;;42.67;38.97;;;;;;;;;;614405;231;26828;-64
2022/09/25 13:42:16;;;;;;;48.70;44.22;;;;;;;;;;619010;231;26577;-64
2022/09/25 13:44:45;;;;;;;38.20;34.85;;;;;;;;;;617864;230;26613;-64
2022/09/25 13:47:31;;;;;;;44.25;40.45;;;;;;;;;;614224;231;27261;-65
2022/09/25 13:50:05;;;;;;;42.62;38.92;;;;;;;;;;616195;230;26638;-64
2022/09/25 13:52:36;;;;;;;43.00;39.05;;;;;;;;;;613105;231;26879;-64
2022/09/25 13:55:19;;;;;;;40.45;36.50;;;;;;;;;;617554;231;26624;-63
2022/09/25 13:57:53;;;;;;;37.33;33.90;;;;;;;;;;616744;230;26841;-63
2022/09/25 14:00:22;;;;;;;37.17;33.97;;;;;;;;;;616775;231;26562;-62
2022/09/25 14:02:50;;;;;;;37.08;33.80;;;;;;;;;;614562;231;27286;-62
2022/09/25 14:05:20;;;;;;;35.80;32.70;;;;;;;;;;619049;231;26598;-62
2022/09/25 14:07:48;;;;;;;33.72;30.77;;;;;;;;;;617097;231;26819;-63
2022/09/25 14:10:19;;;;;;;26.92;24.52;;;;;;;;;;614852;234;26596;-62
2022/09/25 14:12:47;;;;;;;31.85;28.98;;;;;;;;;;615556;233;26828;-62
2022/09/25 14:15:19;;;;;;;26.45;24.20;;;;;;;;;;615484;234;26557;-62
2022/09/25 14:17:47;;;;;;;30.50;27.83;;;;;;;;;;615528;234;26564;-62
2022/09/25 14:20:21;;;;;;;27.25;24.70;;;;;;;;;;615616;234;26801;-63
2022/09/25 14:22:51;;;;;;;25.92;23.52;;;;;;;;;;615205;231;26640;-63
2022/09/25 14:25:22;;;;;;;24.30;22.20;;;;;;;;;;616924;233;26585;-63
2022/09/25 14:27:51;;;;;;;26.85;24.48;;;;;;;;;;616589;227;26674;-63
2022/09/25 14:30:20;;;;;;;23.60;21.40;;;;;;;;;;616471;232;26561;-63
2022/09/25 14:33:06;;;;;;;26.12;23.83;;;;;;;;;;616220;233;26611;-63
2022/09/25 14:35:50;;;;;;;24.02;21.73;;;;;;;;;;614693;230;26585;-63
2022/09/25 14:38:35;;;;;;;22.35;20.23;;;;;;;;;;617790;230;27165;-63
2022/09/25 14:41:04;;;;;;;23.02;20.88;;;;;;;;;;614953;230;26622;-63
2022/09/25 14:43:40;;;;;;;21.62;19.83;;;;;;;;;;616837;231;26595;-64
2022/09/25 14:46:09;;;;;;;22.08;19.92;;;;;;;;;;617460;231;26567;-64
2022/09/25 14:48:41;;;;;;;19.50;17.83;;;;;;;;;;612601;234;26572;-64
2022/09/25 14:51:11;;;;;;;19.50;17.85;;;;;;;;;;619093;231;26542;-63
2022/09/25 14:53:41;;;;;;;20.23;18.17;;;;;;;;;;617432;231;26589;-64
2022/09/25 14:56:10;;;;;;;19.92;17.98;;;;;;;;;;621305;231;26538;-64
2022/09/25 14:58:38;;;;;;;17.75;15.95;;;;;;;;;;617511;231;26560;-63
2022/09/25 15:01:10;;;;;;;15.93;14.50;;;;;;;;;;612262;228;26617;-64
2022/09/25 15:03:38;;;;;;;15.50;14.18;;;;;;;;;;612318;235;26635;-66
2022/09/25 15:06:07;;;;;;;16.30;14.70;;;;;;;;;;615961;231;26648;-68
2022/09/25 15:08:36;;;;;;;16.12;14.48;;;;;;;;;;621121;231;26933;-67
2022/09/25 15:11:09;;;;;;;15.70;14.00;;;;;;;;;;621130;231;26563;-66
2022/09/25 15:13:38;;;;;;;21.25;14.38;;;;;;;;;;620901;231;26608;-67
2022/09/25 15:18:41;;;;;;;14.35;13.07;;;;;;;;;;612575;235;26623;-66
2022/09/25 15:21:13;;;;;;;15.15;13.27;;;;;;;;;;612673;234;26777;-67
2022/09/25 15:23:42;;;;;;;14.48;12.25;;;;;;;;;;615329;234;26855;-65